createdAt,value
2019-05-25T00:01:27.575Z,21.33
2019-05-25T00:03:59.016Z,23.03
2019-05-25T00:06:27.813Z,22.90
2019-05-25T00:09:02.616Z,20.53
2019-05-25T00:11:37.172Z,21.53
2019-05-25T00:14:11.752Z,21.27
2019-05-25T00:16:40.528Z,21.57
2019-05-25T00:19:09.416Z,20.53
2019-05-25T00:21:38.198Z,20.27
2019-05-25T00:24:12.105Z,19.60
2019-05-25T00:26:37.483Z,22.73
2019-05-25T00:29:08.319Z,26.57
2019-05-25T00:31:43.105Z,23.93
2019-05-25T00:34:12.038Z,25.23
2019-05-25T00:36:41.021Z,26.30
2019-05-25T00:39:09.852Z,31.70
2019-05-25T00:41:41.566Z,30.00
2019-05-25T00:44:16.404Z,30.30
2019-05-25T00:46:47.438Z,30.30
2019-05-25T00:49:17.176Z,33.30
2019-05-25T00:51:52.897Z,28.60
2019-05-25T00:54:28.095Z,31.57
2019-05-25T00:56:55.801Z,36.70
2019-05-25T00:59:30.331Z,30.97
2019-05-25T01:02:03.002Z,28.60
2019-05-25T01:04:31.916Z,27.43
2019-05-25T01:07:00.887Z,25.97
2019-05-25T01:09:31.708Z,25.97
2019-05-25T01:12:00.476Z,27.87
2019-05-25T01:14:35.417Z,31.00
2019-05-25T01:17:06.360Z,27.10
2019-05-25T01:19:41.034Z,24.73
2019-05-25T01:22:09.827Z,24.37
2019-05-25T01:24:56.379Z,26.40
2019-05-25T01:27:31.009Z,28.13
2019-05-25T01:29:59.989Z,27.40
2019-05-25T01:32:34.740Z,26.40
2019-05-25T01:35:10.763Z,28.33
2019-05-25T01:37:48.345Z,28.80
2019-05-25T01:40:17.284Z,29.40
2019-05-25T01:42:46.175Z,28.90
2019-05-25T01:45:20.678Z,30.90
2019-05-25T01:47:49.693Z,26.50
2019-05-25T01:50:18.480Z,27.40
2019-05-25T01:52:47.482Z,30.60
2019-05-25T01:55:16.223Z,28.47
2019-05-25T01:57:47.200Z,29.00
2019-05-25T02:00:22.178Z,32.20
2019-05-25T02:02:51.226Z,25.97
2019-05-25T02:05:23.120Z,35.03
2019-05-25T02:07:54.743Z,33.90
2019-05-25T02:10:26.632Z,26.23
2019-05-25T02:12:55.428Z,30.47
2019-05-25T02:15:24.256Z,30.63
2019-05-25T02:17:53.064Z,27.17
2019-05-25T02:20:22.818Z,28.00
2019-05-25T02:22:51.635Z,28.17
2019-05-25T02:25:20.432Z,32.53
2019-05-25T02:27:51.865Z,28.07
2019-05-25T02:30:23.641Z,25.00
2019-05-25T02:32:55.170Z,25.93
2019-05-25T02:35:27.123Z,23.30
2019-05-25T02:37:57.072Z,19.87
2019-05-25T02:40:26.003Z,24.20
2019-05-25T02:42:56.751Z,24.43
2019-05-25T02:45:25.590Z,19.97
2019-05-25T02:47:54.425Z,19.67
2019-05-25T02:50:23.265Z,20.90
2019-05-25T02:52:52.164Z,18.60
2019-05-25T02:55:33.864Z,19.47
2019-05-25T02:57:52.867Z,21.37
2019-05-25T03:00:24.636Z,17.70
2019-05-25T03:02:53.472Z,16.63
2019-05-25T03:05:22.261Z,16.27
2019-05-25T03:07:56.108Z,20.47
2019-05-25T03:10:24.894Z,22.67
2019-05-25T03:12:55.568Z,19.60
2019-05-25T03:15:24.477Z,19.83
2019-05-25T03:17:58.978Z,23.27
2019-05-25T03:20:30.835Z,19.40
2019-05-25T03:23:00.729Z,24.17
2019-05-25T03:25:29.523Z,20.77
2019-05-25T03:27:58.344Z,22.90
2019-05-25T03:30:33.202Z,21.53
2019-05-25T03:33:07.741Z,25.97
2019-05-25T03:35:36.564Z,26.17
2019-05-25T03:38:05.343Z,21.77
2019-05-25T03:40:39.921Z,24.43
2019-05-25T03:43:08.712Z,22.87
2019-05-25T03:45:37.672Z,26.80
2019-05-25T03:48:06.573Z,29.00
2019-05-25T03:50:38.569Z,27.13
2019-05-25T03:53:07.361Z,29.97
2019-05-25T03:55:36.318Z,27.33
2019-05-25T03:58:05.321Z,30.73
2019-05-25T04:00:38.413Z,33.40
2019-05-25T04:03:10.817Z,26.03
2019-05-25T04:05:42.168Z,28.67
2019-05-25T04:08:10.952Z,31.03
2019-05-25T04:10:39.773Z,31.63
2019-05-25T04:13:08.551Z,31.03
2019-05-25T04:15:37.328Z,31.73
2019-05-25T04:18:06.147Z,32.73
2019-05-25T04:20:36.132Z,33.60
2019-05-25T04:23:09.027Z,29.43
2019-05-25T04:25:38.871Z,31.73
2019-05-25T04:28:08.635Z,31.90
2019-05-25T04:30:37.420Z,34.03
2019-05-25T04:33:12.004Z,35.63
2019-05-25T04:35:40.782Z,34.87
2019-05-25T04:38:09.571Z,35.10
2019-05-25T04:40:40.406Z,38.73
2019-05-25T04:43:15.067Z,35.20
2019-05-25T04:45:49.860Z,35.43
2019-05-25T04:48:24.592Z,32.63
2019-05-25T04:50:59.118Z,34.70
2019-05-25T04:53:33.666Z,34.20
2019-05-25T04:56:02.474Z,33.50
2019-05-25T04:58:31.306Z,30.93
2019-05-25T05:01:05.790Z,33.13
2019-05-25T05:03:34.621Z,33.83
2019-05-25T05:06:09.342Z,34.20
2019-05-25T05:08:39.107Z,31.20
2019-05-25T05:11:07.886Z,31.33
2019-05-25T05:13:36.732Z,30.80
2019-05-25T05:16:06.509Z,27.33
2019-05-25T05:18:35.296Z,32.67
2019-05-25T05:21:06.795Z,30.23
2019-05-25T05:23:41.511Z,29.97
2019-05-25T05:26:16.336Z,30.27
2019-05-25T05:28:49.252Z,31.13
2019-05-25T05:31:23.630Z,25.60
2019-05-25T05:33:51.806Z,26.63
2019-05-25T05:36:22.576Z,24.73
2019-05-25T05:38:53.923Z,31.13
2019-05-25T05:41:26.899Z,29.37
2019-05-25T05:43:57.726Z,28.00
2019-05-25T05:46:28.151Z,32.00
2019-05-25T05:48:58.065Z,26.00
2019-05-25T05:51:29.933Z,25.40
2019-05-25T05:54:03.324Z,28.80
2019-05-25T05:56:34.740Z,25.60
2019-05-25T05:59:06.205Z,33.00
2019-05-25T06:01:40.999Z,30.47
2019-05-25T06:04:11.775Z,26.70
2019-05-25T06:06:43.191Z,26.47
2019-05-25T06:09:12.030Z,23.07
2019-05-25T06:11:41.826Z,24.47
2019-05-25T06:14:10.979Z,25.63
2019-05-25T06:16:39.821Z,25.50
2019-05-25T06:19:09.595Z,27.90
2019-05-25T06:21:38.393Z,27.80
2019-05-25T06:24:07.334Z,25.30
2019-05-25T06:26:36.145Z,27.00
2019-05-25T06:29:05.137Z,27.17
2019-05-25T06:31:33.991Z,27.93
2019-05-25T06:34:08.732Z,25.10
2019-05-25T06:36:37.551Z,26.67
2019-05-25T06:39:08.145Z,25.67
2019-05-25T06:41:36.933Z,25.17
2019-05-25T06:44:06.306Z,28.90
2019-05-25T06:46:35.123Z,23.63
2019-05-25T06:49:06.531Z,28.57
2019-05-25T06:51:35.448Z,24.50
2019-05-25T06:54:10.079Z,25.43
2019-05-25T06:56:38.963Z,26.67
2019-05-25T06:59:08.779Z,22.83
2019-05-25T07:01:40.333Z,22.03
2019-05-25T07:04:15.054Z,19.53
2019-05-25T07:06:47.119Z,21.43
2019-05-25T07:09:22.065Z,24.67
2019-05-25T07:11:50.947Z,25.57
2019-05-25T07:14:25.776Z,25.47
2019-05-25T07:16:54.665Z,23.77
2019-05-25T07:19:23.557Z,25.03
2019-05-25T07:21:53.681Z,26.07
2019-05-25T07:24:23.691Z,24.70
2019-05-25T07:26:52.686Z,24.53
2019-05-25T07:29:21.516Z,22.80
2019-05-25T07:31:56.099Z,24.73
2019-05-25T07:34:24.989Z,29.20
2019-05-25T07:36:56.951Z,23.17
2019-05-25T07:39:31.412Z,21.93
2019-05-25T07:42:02.392Z,26.47
2019-05-25T07:44:31.407Z,23.87
2019-05-25T07:47:06.102Z,22.97
2019-05-25T07:49:35.886Z,22.27
2019-05-25T07:52:04.933Z,24.30
2019-05-25T07:54:39.765Z,23.67
2019-05-25T07:57:09.883Z,25.67
2019-05-25T07:59:44.713Z,29.20
2019-05-25T08:02:13.707Z,25.73
2019-05-25T08:04:42.598Z,23.07
2019-05-25T08:07:11.487Z,28.70
2019-05-25T08:09:42.938Z,27.47
2019-05-25T08:12:11.711Z,27.50
2019-05-25T08:14:44.914Z,25.97
2019-05-25T08:17:12.268Z,24.90
2019-05-25T08:19:41.161Z,28.73
2019-05-25T08:22:10.049Z,29.33
2019-05-25T08:24:39.004Z,30.23
2019-05-25T08:27:09.878Z,26.83
2019-05-25T08:29:41.031Z,28.33
2019-05-25T08:32:12.987Z,28.87
2019-05-25T08:34:47.916Z,26.70
2019-05-25T08:37:19.571Z,30.97
2019-05-25T08:39:48.350Z,24.57
2019-05-25T08:42:17.352Z,29.03
2019-05-25T08:44:52.285Z,27.30
2019-05-25T08:47:23.824Z,26.87
2019-05-25T08:49:52.854Z,27.30
2019-05-25T08:52:27.412Z,25.50
2019-05-25T08:54:56.659Z,23.73
2019-05-25T08:57:31.355Z,23.80
2019-05-25T09:00:03.611Z,24.40
2019-05-25T09:02:32.541Z,26.60
2019-05-25T09:05:05.648Z,23.97
2019-05-25T09:07:35.487Z,24.93
2019-05-25T09:10:06.374Z,25.23
2019-05-25T09:12:36.161Z,26.10
2019-05-25T09:15:06.690Z,23.70
2019-05-25T09:17:38.154Z,30.60
2019-05-25T09:20:09.975Z,29.77
2019-05-25T09:22:38.825Z,27.13
2019-05-25T09:25:10.534Z,25.27
2019-05-25T09:27:39.319Z,22.00
2019-05-25T09:30:10.360Z,20.77
2019-05-25T09:32:41.957Z,22.27
2019-05-25T09:35:12.165Z,22.17
2019-05-25T09:37:43.638Z,22.80
2019-05-25T09:40:12.635Z,19.57
2019-05-25T09:42:47.449Z,17.27
2019-05-25T09:45:16.350Z,18.20
2019-05-25T09:47:50.835Z,19.17
2019-05-25T09:50:19.618Z,16.97
2019-05-25T09:52:48.456Z,17.60
2019-05-25T09:55:18.194Z,15.43
2019-05-25T09:57:46.991Z,16.63
2019-05-25T10:00:17.702Z,19.77
2019-05-25T10:02:46.893Z,19.47
2019-05-25T10:05:16.918Z,17.60
2019-05-25T10:07:47.770Z,21.00
2019-05-25T10:10:17.458Z,19.97
2019-05-25T10:12:46.253Z,24.10
2019-05-25T10:15:15.408Z,22.60
2019-05-25T10:17:44.200Z,21.10
2019-05-25T10:20:16.187Z,20.23
2019-05-25T10:22:45.020Z,19.73
2019-05-25T10:25:14.211Z,20.93
2019-05-25T10:27:42.998Z,19.67
2019-05-25T10:30:12.435Z,16.73
2019-05-25T10:32:41.245Z,17.23
2019-05-25T10:35:11.395Z,21.50
2019-05-25T10:37:40.251Z,22.23
2019-05-25T10:40:14.892Z,28.27
2019-05-25T10:42:45.707Z,24.17
2019-05-25T10:45:20.277Z,21.17
2019-05-25T10:47:49.081Z,22.47
2019-05-25T10:50:21.583Z,21.87
2019-05-25T10:52:50.448Z,22.87
2019-05-25T10:55:19.438Z,21.40
2019-05-25T10:57:48.267Z,23.60
2019-05-25T11:00:19.751Z,27.27
2019-05-25T11:02:48.614Z,25.03
2019-05-25T11:05:23.203Z,22.53
2019-05-25T11:07:55.774Z,26.93
2019-05-25T11:10:24.581Z,22.50
2019-05-25T11:12:56.004Z,21.30
2019-05-25T11:15:24.840Z,22.97
2019-05-25T11:18:00.730Z,23.10
2019-05-25T11:20:32.168Z,21.77
2019-05-25T11:23:00.989Z,20.00
2019-05-25T11:25:29.786Z,24.50
2019-05-25T11:27:58.631Z,25.03
2019-05-25T11:30:27.452Z,25.07
2019-05-25T11:32:56.258Z,21.27
2019-05-25T11:35:26.212Z,19.70
2019-05-25T11:37:55.970Z,19.73
2019-05-25T11:40:24.848Z,19.07
2019-05-25T11:42:53.829Z,22.30
2019-05-25T11:45:24.321Z,21.60
2019-05-25T11:47:54.090Z,20.80
2019-05-25T11:50:22.949Z,20.43
2019-05-25T11:52:52.880Z,20.67
2019-05-25T11:55:24.347Z,22.70
2019-05-25T11:57:53.175Z,19.40
2019-05-25T12:00:25.878Z,22.23
2019-05-25T12:02:56.092Z,22.67
2019-05-25T12:05:24.879Z,22.07
2019-05-25T12:07:57.227Z,16.73
2019-05-25T12:10:27.049Z,20.13
2019-05-25T12:13:01.739Z,22.20
2019-05-25T12:15:30.510Z,19.90
2019-05-25T12:17:59.378Z,20.73
2019-05-25T12:20:28.201Z,18.83
2019-05-25T12:22:56.997Z,19.90
2019-05-25T12:25:25.826Z,18.90
2019-05-25T12:27:55.585Z,15.63
2019-05-25T12:30:39.380Z,16.77
2019-05-25T12:32:55.363Z,20.60
2019-05-25T12:35:26.775Z,19.23
2019-05-25T12:37:55.591Z,20.53
2019-05-25T12:40:24.419Z,20.27
2019-05-25T12:42:53.222Z,23.53
2019-05-25T12:45:23.980Z,20.20
2019-05-25T12:47:54.483Z,14.77
2019-05-25T12:50:23.569Z,17.90
2019-05-25T12:52:52.371Z,21.73
2019-05-25T12:55:21.208Z,21.83
2019-05-25T12:57:52.003Z,18.53
2019-05-25T13:00:20.895Z,18.30
2019-05-25T13:02:49.790Z,16.90
2019-05-25T13:05:33.049Z,17.83
2019-05-25T13:07:49.034Z,17.87
2019-05-25T13:10:20.506Z,16.27
2019-05-25T13:12:49.303Z,15.43
2019-05-25T13:15:18.144Z,13.27
2019-05-25T13:17:50.138Z,13.33
2019-05-25T13:20:24.694Z,14.83
2019-05-25T13:22:53.490Z,15.17
2019-05-25T13:25:22.326Z,13.20
2019-05-25T13:27:53.747Z,12.03
2019-05-25T13:30:22.534Z,13.17
2019-05-25T13:32:51.395Z,13.13
2019-05-25T13:35:20.206Z,11.37
2019-05-25T13:37:48.981Z,12.20
2019-05-25T13:40:17.837Z,11.80
2019-05-25T13:42:46.615Z,15.43
2019-05-25T13:45:21.182Z,12.90
2019-05-25T13:47:49.968Z,11.30
2019-05-25T13:50:22.151Z,12.40
2019-05-25T13:52:51.012Z,12.43
2019-05-25T13:55:19.848Z,12.00
2019-05-25T13:57:49.642Z,10.77
2019-05-25T14:00:18.633Z,12.53
2019-05-25T14:02:47.410Z,12.70
2019-05-25T14:05:16.500Z,11.77
2019-05-25T14:07:45.350Z,12.87
2019-05-25T14:10:15.170Z,13.00
2019-05-25T14:12:46.843Z,13.40
2019-05-25T14:15:16.349Z,11.90
2019-05-25T14:17:45.127Z,12.23
2019-05-25T14:20:20.033Z,12.60
2019-05-25T14:22:51.498Z,12.40
2019-05-25T14:25:23.617Z,11.67
2019-05-25T14:27:52.402Z,14.53
2019-05-25T14:30:24.041Z,14.67
2019-05-25T14:32:52.839Z,13.00
2019-05-25T14:35:23.613Z,14.37
2019-05-25T14:37:52.125Z,14.27
2019-05-25T14:40:26.851Z,15.37
2019-05-25T14:42:55.667Z,14.43
2019-05-25T14:45:24.701Z,15.00
2019-05-25T14:47:53.488Z,14.50
2019-05-25T14:50:22.273Z,14.03
2019-05-25T14:52:51.118Z,14.10
2019-05-25T14:55:19.935Z,14.33
2019-05-25T14:57:48.726Z,15.80
2019-05-25T15:00:20.812Z,11.73
2019-05-25T15:02:55.334Z,11.70
2019-05-25T15:05:24.122Z,12.70
2019-05-25T15:07:56.008Z,15.57
2019-05-25T15:10:26.890Z,11.03
2019-05-25T15:12:55.678Z,9.77
2019-05-25T15:15:24.524Z,11.77
2019-05-25T15:17:54.263Z,11.50
2019-05-25T15:20:23.077Z,11.13
2019-05-25T15:22:54.575Z,10.47
2019-05-25T15:25:23.371Z,10.67
2019-05-25T15:27:57.890Z,11.43
2019-05-25T15:30:26.771Z,13.00
2019-05-25T15:32:58.767Z,10.50
2019-05-25T15:35:27.569Z,12.17
2019-05-25T15:37:56.389Z,12.70
2019-05-25T15:40:26.223Z,11.47
2019-05-25T15:42:56.266Z,14.67
2019-05-25T15:45:25.146Z,10.40
2019-05-25T15:47:53.946Z,9.93
2019-05-25T15:50:23.243Z,12.17
2019-05-25T15:52:52.100Z,9.30
2019-05-25T15:55:26.833Z,10.80
2019-05-25T15:57:58.846Z,10.43
2019-05-25T16:00:47.910Z,9.77
2019-05-25T16:03:18.032Z,9.17
2019-05-25T16:05:47.694Z,10.37
2019-05-25T16:08:18.966Z,14.07
2019-05-25T16:10:48.279Z,10.70
2019-05-25T16:13:17.266Z,9.47
2019-05-25T16:15:46.073Z,10.33
2019-05-25T16:18:14.903Z,8.57
2019-05-25T16:20:45.686Z,10.33
2019-05-25T16:23:23.048Z,10.27
2019-05-25T16:25:51.853Z,11.60
2019-05-25T16:28:20.654Z,9.20
2019-05-25T16:30:49.793Z,11.17
2019-05-25T16:33:21.226Z,11.17
2019-05-25T16:35:50.132Z,11.77
2019-05-25T16:38:22.237Z,9.83
2019-05-25T16:40:53.855Z,10.23
2019-05-25T16:43:28.480Z,11.60
2019-05-25T16:46:03.209Z,10.93
2019-05-25T16:48:34.758Z,11.30
2019-05-25T16:51:09.799Z,11.30
2019-05-25T16:53:41.742Z,12.10
2019-05-25T16:56:10.648Z,11.80
2019-05-25T16:58:39.642Z,11.73
2019-05-25T17:01:11.192Z,12.10
2019-05-25T17:03:43.052Z,12.10
2019-05-25T17:06:12.899Z,12.17
2019-05-25T17:08:43.091Z,10.90
2019-05-25T17:11:11.870Z,10.87
2019-05-25T17:13:40.833Z,9.87
2019-05-25T17:16:10.985Z,12.70
2019-05-25T17:18:42.848Z,11.83
2019-05-25T17:21:11.655Z,11.57
2019-05-25T17:23:40.516Z,12.60
2019-05-25T17:26:11.959Z,10.73
2019-05-25T17:28:40.741Z,10.17
2019-05-25T17:31:09.586Z,9.50
2019-05-25T17:33:46.057Z,8.93
2019-05-25T17:36:14.809Z,8.10
2019-05-25T17:38:46.367Z,8.00
2019-05-25T17:41:18.322Z,8.23
2019-05-25T17:43:47.315Z,7.07
2019-05-25T17:46:17.231Z,5.30
2019-05-25T17:48:48.167Z,5.67
2019-05-25T17:51:19.213Z,7.83
2019-05-25T17:53:51.173Z,7.17
2019-05-25T17:56:22.620Z,10.60
2019-05-25T17:58:54.691Z,8.90
2019-05-25T18:01:26.149Z,9.97
2019-05-25T18:04:06.814Z,9.27
2019-05-25T18:06:28.221Z,8.77
2019-05-25T18:08:57.120Z,10.27
2019-05-25T18:11:27.130Z,9.93
2019-05-25T18:13:56.121Z,10.40
2019-05-25T18:16:30.846Z,10.40
2019-05-25T18:19:05.635Z,16.87
2019-05-25T18:21:35.546Z,29.60
2019-05-25T18:24:04.576Z,26.53
2019-05-25T18:26:33.686Z,19.40
2019-05-25T18:29:02.674Z,11.87
2019-05-25T18:31:31.767Z,9.47
2019-05-25T18:34:00.762Z,9.53
2019-05-25T18:36:30.677Z,9.33
2019-05-25T18:38:59.470Z,10.43
2019-05-25T18:41:28.352Z,8.47
2019-05-25T18:43:57.243Z,9.47
2019-05-25T18:46:32.056Z,9.83
2019-05-25T18:49:09.582Z,8.47
2019-05-25T18:51:38.414Z,10.00
2019-05-25T18:54:07.197Z,8.50
2019-05-25T18:56:36.125Z,8.43
2019-05-25T18:59:04.911Z,8.60
2019-05-25T19:01:36.773Z,8.60
2019-05-25T19:04:11.718Z,8.00
2019-05-25T19:06:43.531Z,10.40
2019-05-25T19:09:12.310Z,8.57
2019-05-25T19:11:41.214Z,7.77
2019-05-25T19:14:09.999Z,8.83
2019-05-25T19:16:38.787Z,9.10
2019-05-25T19:19:07.619Z,9.90
2019-05-25T19:21:37.362Z,7.03
2019-05-25T19:24:06.178Z,7.43
2019-05-25T19:26:35.431Z,7.50
2019-05-25T19:29:10.052Z,6.07
2019-05-25T19:31:44.692Z,9.50
2019-05-25T19:34:13.494Z,9.67
2019-05-25T19:36:45.159Z,11.60
2019-05-25T19:39:14.016Z,15.10
2019-05-25T19:41:42.918Z,17.67
2019-05-25T19:44:11.755Z,15.80
2019-05-25T19:46:40.742Z,8.37
2019-05-25T19:49:09.578Z,6.97
2019-05-25T19:51:38.414Z,5.90
2019-05-25T19:54:07.239Z,5.83
2019-05-25T19:56:38.091Z,6.87
2019-05-25T19:59:06.879Z,10.93
2019-05-25T20:01:35.728Z,12.03
2019-05-25T20:04:04.507Z,12.77
2019-05-25T20:06:35.951Z,9.30
2019-05-25T20:09:06.956Z,6.73
2019-05-25T20:11:39.327Z,7.20
2019-05-25T20:14:08.123Z,5.93
2019-05-25T20:16:37.913Z,5.40
2019-05-25T20:19:09.721Z,5.50
2019-05-25T20:21:38.505Z,6.60
2019-05-25T20:24:07.401Z,6.73
2019-05-25T20:26:37.196Z,6.17
2019-05-25T20:29:06.020Z,5.97
2019-05-25T20:31:37.513Z,5.93
2019-05-25T20:34:06.330Z,5.83
2019-05-25T20:36:35.111Z,6.07
2019-05-25T20:39:05.173Z,5.80
2019-05-25T20:41:33.967Z,6.63
2019-05-25T20:44:02.750Z,7.53
2019-05-25T20:46:31.596Z,7.47
2019-05-25T20:49:00.663Z,6.93
2019-05-25T20:51:29.458Z,6.83
2019-05-25T20:53:58.533Z,9.80
2019-05-25T20:56:27.561Z,9.73
2019-05-25T20:59:02.306Z,10.90
2019-05-25T21:01:31.227Z,10.07
2019-05-25T21:04:00.938Z,10.00
2019-05-25T21:06:35.721Z,10.33
2019-05-25T21:09:07.030Z,10.73
2019-05-25T21:11:41.636Z,12.27
2019-05-25T21:14:12.574Z,8.87
2019-05-25T21:16:44.654Z,8.60
2019-05-25T21:19:14.465Z,9.17
2019-05-25T21:21:49.196Z,10.40
2019-05-25T21:24:17.965Z,11.07
2019-05-25T21:26:49.638Z,10.93
2019-05-25T21:29:21.601Z,12.93
2019-05-25T21:31:51.517Z,12.00
2019-05-25T21:34:23.274Z,10.80
2019-05-25T21:36:52.166Z,13.70
2019-05-25T21:39:21.056Z,14.90
2019-05-25T21:41:49.946Z,15.03
2019-05-25T21:44:19.707Z,14.80
2019-05-25T21:46:48.503Z,13.10
2019-05-25T21:49:17.352Z,17.33
2019-05-25T21:51:48.231Z,17.00
2019-05-25T21:54:19.691Z,16.63
2019-05-25T21:56:54.634Z,15.30
2019-05-25T21:59:23.646Z,16.03
2019-05-25T22:01:52.638Z,15.77
2019-05-25T22:04:24.099Z,17.50
2019-05-25T22:06:52.913Z,15.90
2019-05-25T22:09:21.718Z,16.57
2019-05-25T22:11:50.559Z,16.07
2019-05-25T22:14:22.856Z,17.23
2019-05-25T22:16:51.666Z,17.10
2019-05-25T22:19:26.555Z,15.67
2019-05-25T22:21:55.423Z,15.37
2019-05-25T22:24:24.432Z,17.43
2019-05-25T22:26:56.086Z,18.20
2019-05-25T22:29:30.708Z,17.60
2019-05-25T22:32:02.554Z,16.93
2019-05-25T22:34:31.350Z,17.57
2019-05-25T22:37:00.348Z,18.47
2019-05-25T22:39:29.341Z,18.43
2019-05-25T22:41:58.336Z,17.67
2019-05-25T22:44:29.204Z,17.53
2019-05-25T22:47:01.479Z,19.17
2019-05-25T22:49:30.284Z,18.10
2019-05-25T22:51:59.079Z,17.27
2019-05-25T22:54:27.927Z,17.43
2019-05-25T22:56:56.804Z,16.20
2019-05-25T22:59:31.296Z,16.47
2019-05-25T23:02:02.774Z,17.10
2019-05-25T23:04:34.733Z,17.40
2019-05-25T23:07:03.727Z,18.00
2019-05-25T23:09:33.523Z,17.03
2019-05-25T23:12:02.754Z,17.90
2019-05-25T23:14:31.830Z,16.73
2019-05-25T23:17:01.692Z,17.43
2019-05-25T23:19:32.447Z,17.33
2019-05-25T23:22:01.238Z,18.83
2019-05-25T23:24:30.092Z,18.00
2019-05-25T23:26:58.877Z,15.83
2019-05-25T23:29:27.682Z,18.70
2019-05-25T23:31:56.521Z,17.87
2019-05-25T23:34:31.303Z,18.13
2019-05-25T23:37:13.683Z,18.37
2019-05-25T23:39:31.606Z,17.73
2019-05-25T23:42:06.449Z,16.50
2019-05-25T23:44:35.366Z,18.40
2019-05-25T23:47:04.196Z,16.93
2019-05-25T23:49:33.013Z,18.20
2019-05-25T23:52:07.526Z,18.00
2019-05-25T23:54:36.364Z,18.10
2019-05-25T23:57:05.642Z,19.10
2019-05-25T23:59:34.443Z,17.60
